Arlington, Indiana
Current Conditions -  °F | °C
As of 11:53 AM on Saturday 25 Oct 2014 (Local Time) from KGEZ Reporting Station
Few Clouds Few Clouds  
Wind Chill: 66°   Ceiling: Unl
Heat Index: 66°   Visibility: 10mi
Dew Point: 56°   Wind: 10mph
Humidity: 70%   Direction: 240°WSW
Pressure: 29.96"   Gusts: NA
Location:  39.64°N, 85.57°W
Report Text: KGEZ 251553Z AUTO 24009KT 10SM FEW015 19/13 A2996 RMK AO2 SLP144 T01890133
Loading
Personal Weather Stations






























Interactive Weather Map
Tropical Storm Tracking
New forecast layout! Learn more

10-Day Weather Forecast

Advertisements
Track Severe Weather on mobile